• Join FlightAware (Why Join?)
  • Login
  • US Flag 
05:39PM EST


 

Airport Tracker/Info


-or-


 

Live Flight TrackerFlight Track Log ✈ PDT4130 ✈ 20-Oct-2013 ✈ KPHL - KROC

Flight Track Log - Related Links

Times and Time Zones

All times are in EDT time to prevent confusion due to time zone crossing. See the PDT4130 flight status page for this flight to view local times or setup timezone preferences in your user account.

Time Position Orientation Groundspeed Altitude Reporting Facility
EDT Latitude Longitude Course Direction KTS MPH feet Rate Location/Type
11:28AM 39.9000 -75.2333 270° West 105 121 800  Level Philadelphia TRACON
11:28AM 39.9000 -75.2500 270° West 108 124 1,500 1,560 Climbing Philadelphia TRACON
11:29AM 39.9167 -75.3000 294° West 132 152 3,000 1,200 Climbing Philadelphia TRACON
11:30AM 39.9167 -75.3500 270° West 131 151 4,000 1,080 Climbing Philadelphia TRACON
11:31AM 39.9314 -75.3864 298° West 148 170 5,000 1,200 Climbing New York Center
11:32AM 39.9425 -75.4278 289° West 138 159 6,200 1,200 Climbing New York Center
11:33AM 39.9853 -75.4522 336° Northwest 150 173 7,500 1,200 Climbing New York Center
11:34AM 40.0136 -75.4678 337° Northwest 150 173 8,600 720 Climbing New York Center
11:35AM 40.0694 -75.4850 347° North 189 217 9,000 300 Climbing New York Center
11:36AM 40.1183 -75.5075 341° North 210 242 9,300 480 Climbing New York Center
11:37AM 40.1700 -75.5244 346° North 204 235 10,000 300 Climbing New York Center
11:38AM 40.2211 -75.5472 341° North 205 236 10,000  Level New York Center
11:39AM 40.2586 -75.6014 312° West 200 230 10,000 600 Level New York Center
11:40AM 40.2914 -75.6608 306° West 194 223 11,200 960 Climbing New York Center
11:41AM 40.3275 -75.6989 321° Northwest 176 203 12,000 360 Climbing New York Center
11:42AM 40.3653 -75.7397 321° Northwest 176 203 12,000 60 Level New York Center
11:43AM 40.4031 -75.7831 319° Northwest 181 208 12,200 780 Climbing New York Center
11:44AM 40.4411 -75.8186 325° Northwest 173 199 13,600 840 Climbing New York Center
11:45AM 40.4833 -75.8544 327° Northwest 168 193 14,000 180 Climbing New York Center
11:46AM 40.5231 -75.9011 318° Northwest 173 199 14,000  Level New York Center
11:47AM 40.5608 -75.9450 319° Northwest 191 220 14,000 600 Level New York Center
11:48AM 40.6089 -75.9897 325° Northwest 197 227 15,300 960 Climbing New York Center
11:49AM 40.6428 -76.0222 324° Northwest 177 204 16,000 300 Climbing New York Center
11:50AM 40.6761 -76.0658 315° West 172 198 16,000 -60 Level New York Center
11:51AM 40.7175 -76.1211 315° West 182 209 15,900 -60 Descending New York Center
11:52AM 40.7611 -76.1683 321° Northwest 196 226 15,900  Level New York Center
11:53AM 40.8031 -76.2072 325° Northwest 209 241 15,900  Level New York Center
11:54AM 40.8469 -76.2547 321° Northwest 209 241 15,900  Level New York Center
11:55AM 40.8989 -76.3028 325° Northwest 209 241 16,000  Climbing New York Center
11:56AM 40.9403 -76.3503 319° Northwest 204 235 16,000  Level New York Center
11:57AM 40.9842 -76.3922 324° Northwest 199 229 16,000  Level New York Center
11:58AM 41.0258 -76.4342 323° Northwest 204 235 16,000  Level New York Center
11:59AM 41.0653 -76.4814 318° Northwest 204 235 16,000  Level New York Center
12:00PM 41.1128 -76.5350 320° Northwest 198 228 16,000  Level New York Center
12:01PM 41.1583 -76.5803 323° Northwest 204 235 16,000  Level New York Center
12:02PM 41.2019 -76.6283 320° Northwest 204 235 16,000  Level New York Center
12:03PM 41.2394 -76.6700 320° Northwest 204 235 16,000  Level New York Center
12:04PM 41.2847 -76.7211 320° Northwest 204 235 16,000  Level New York Center
12:05PM 41.3306 -76.7636 325° Northwest 199 229 16,000  Level New York Center
12:06PM 41.3811 -76.7931 336° Northwest 199 229 16,000  Level New York Center
12:07PM 41.4431 -76.8069 350° North 199 229 16,000  Level New York Center
12:08PM 41.5022 -76.8317 343° North 212 244 16,000  Level New York Center
12:09PM 41.5592 -76.8561 342° North 217 250 16,000  Level New York Center
12:10PM 41.6139 -76.8861 338° Northwest 217 250 16,000  Level New York Center
12:11PM 41.6769 -76.9169 340° North 217 250 16,000  Level New York Center
12:12PM 41.7317 -76.9442 340° North 217 250 16,000 -60 Level New York Center
12:13PM 41.7842 -76.9769 335° Northwest 217 250 15,900 -60 Descending New York Center
12:14PM 41.8408 -77.0072 338° Northwest 212 244 15,900  Level New York Center
12:15PM 41.8978 -77.0322 342° North 212 244 15,900  Level New York Center
12:16PM 41.9281 -77.0442 344° North 215 247 15,900  Level Cleveland Center
12:17PM 41.9794 -77.0731 337° Northwest 213 245 15,900  Level Cleveland Center
12:18PM 42.0344 -77.1008 339° North 212 244 15,900  Level Cleveland Center
12:19PM 42.0994 -77.1331 340° North 211 243 16,000  Climbing Cleveland Center
12:20PM 42.1522 -77.1631 337° Northwest 206 237 16,000  Level Cleveland Center
12:21PM 42.2075 -77.1883 341° North 209 241 16,000  Level Cleveland Center
12:22PM 42.2606 -77.2186 337° Northwest 209 241 16,000  Level Cleveland Center
12:23PM 42.3139 -77.2478 338° Northwest 208 239 16,000  Level Cleveland Center
12:24PM 42.3675 -77.2786 337° Northwest 210 242 16,000 -60 Level Cleveland Center
12:25PM 42.4350 -77.3100 341° North 213 245 15,900 -120 Descending Cleveland Center
12:25PM 42.4347 -77.3075 99° East 217 250 15,900 -480 Level Cleveland Center
12:25PM 42.4467 -77.3133 340° North 219 252 15,800 -720 Descending Cleveland Center
12:26PM 42.4931 -77.3400 337° Northwest 221 254 15,200 -780 Descending Cleveland Center
12:26PM 42.5119 -77.3475 344° North 230 265 15,000 -720 Descending Cleveland Center
12:27PM 42.5539 -77.3683 340° North 229 264 14,500 -720 Descending Cleveland Center
12:27PM 42.5817 -77.3797 343° North 232 267 14,200 -720 Descending Cleveland Center
12:28PM 42.6117 -77.4011 332° Northwest 228 262 13,800 -900 Descending Cleveland Center
12:28PM 42.6339 -77.4161 334° Northwest 224 258 13,400 -1,020 Descending Cleveland Center
12:29PM 42.6664 -77.4425 329° Northwest 227 261 12,800 -1,020 Descending Cleveland Center
12:29PM 42.6900 -77.4536 341° North 232 267 12,400 -1,200 Descending Cleveland Center
12:30PM 42.7583 -77.4658 353° North 253 291 11,300 -1,080 Descending Cleveland Center
12:31PM 42.8122 -77.4650 North 253 291 10,500 -1,200 Descending Cleveland Center
12:31PM 42.8283 -77.4667 356° North 250 288 10,100 -1,200 Descending Cleveland Center
12:32PM 42.8878 -77.4650 North 230 265 9,200 -1,080 Descending Cleveland Center
12:33PM 42.9386 -77.4683 357° North 227 261 8,100 -1,440 Descending Cleveland Center
12:33PM 42.9492 -77.4667 North 216 249 7,800 -1,980 Descending Cleveland Center
12:34PM 42.9989 -77.4583 North 220 253 6,100 -1,380 Descending Cleveland Center
12:35PM 43.0697 -77.4547 North 204 235 5,000 -1,080 Descending Cleveland Center
12:35PM 43.0681 -77.4544 173° South 210 242 5,000 -300 Level Cleveland Center
12:36PM 43.1278 -77.4494 North 205 236 4,700 -300 Descending Cleveland Center
12:36PM 43.1244 -77.4494 180° South 207 238 4,700 -1,200 Level Cleveland Center
12:37PM 43.1781 -77.4456 North 198 228 3,400 -840 Descending Cleveland Center
12:38PM 43.2211 -77.4700 338° Northwest 192 221 3,000 -240 Descending Cleveland Center
12:39PM 43.2336 -77.5411 284° West 191 220 3,000  Level Cleveland Center
12:39PM 43.2331 -77.5397 119° Southeast 193 222 3,000 -360 Level Cleveland Center
12:40PM 43.2131 -77.5967 244° Southwest 176 203 2,700 -420 Descending Cleveland Center
12:41PM 43.2039 -77.6047 213° Southwest 181 208 2,600 -720 Descending Cleveland Center
12:41PM 43.1767 -77.6278 212° Southwest 149 171 2,000 -780 Descending Cleveland Center
12:42PM 43.1667 -77.6364 212° Southwest 167 192 1,800 -840 Descending Cleveland Center
12:42PM 43.1475 -77.6547 215° Southwest 119 137 1,200 -780 Descending Cleveland Center
12:43PM 43.1394 -77.6597 204° Southwest 140 161 1,000 -540 Descending Cleveland Center
12:44PM 43.1158 -77.6811 213° Southwest 120 138 500 -540 Descending Cleveland Center